Airfield :
LOGIN :

Register | Disclaimer

   EN    FR    IT 

 










Legend :    VFR   Marginal VFR   IFR   Intensive IFR   Very Intensive IFR
Visi :
Ceiling :
>= 8 km
>= 3000ft
5 to 8 km
1000 to 3000 ft
1500m to 5 km
500 to 1000 ft
800 to 1500m
200 to 500 ft
< 800m
< 200 ft
Symbols :   Thunderstorms  Fog  Heavy snow  Heavy precipitations  Wind > 20 kt
SIGMETs :     Misc.  Thunderstorms  Icing  Turbulence  Mountain Waves  Volcanic Ashes






- Airport Elevation : 885 ft
- IATA code : BAS


LFSB - Bale-Mulhouse

CURRENT METAR :
  • 121430Z 21003KT 170V240 9999 FEW063TCU FEW070CB SCT140 BKN180 32/16 Q1014 TEMPO 28018G35KT 4500 TSRA SCT070CB

EXPIRED METARs :
  • 121400Z VRB04KT 9999 FEW063TCU FEW070CB SCT140 BKN180 33/17 Q1014 TEMPO 28018G35KT 4500 TSRA SCT070CB
  • 121330Z 21005KT 160V240 9999 FEW063TCU FEW070CB SCT140 BKN180 33/18 Q1014 TEMPO 28018G35KT 4500 TSRA SCT070CB
  • 121230Z 19004KT 150V290 9999 FEW063TCU FEW070CB SCT140 BKN180 32/18 Q1015 TEMPO 28018G35KT 4500 TSRA SCT070CB
  • 121200Z VRB03KT 9999 FEW063TCU FEW070CB SCT140 BKN180 32/19 Q1015 TEMPO 28018G35KT 4500 TSRA SCT070CB

TAF TAF LFSB
Valid from the 12 at 12:00 until the 13 at 12:00 UTC


121100Z 1212/1312 10006KT 9999 FEW070CB
PROB40
TEMPO 1212/1219 28018G35KT 4500 TSRA SCT070CB BKN110
BECMG 1219/1222 CAVOK
PROB30
TEMPO 1219/1307 FEW075CB
BECMG 1310/1312 FEW070CB BKN110
Met : +33 3 89 90 31 11



MET'MAP, your aeronautical weather chart ! - Copyright ORBIFLY December 2007 - Disclaimer

ORBIFLY MET'MAP TEAM :

Programming & Development : Alexandra Zaïnal
Concept & original design : Baudouin d'Aumeries
Assistance for programming : Marc-Olivier Méhu
Technical & hardware support : Manuel Goepfert

Contact : metmap@orbifly.com




SOURCES & CREDITS :

   NOAA